KQA671 HKJK-HKKI
Flight info
| Callsign | KQA671 |
|---|---|
| Flight time | 0h 39m |
| Altitude | 24000 |
| Route | ANTUK2D APKUB DCT NEVON NEVON1A |
| Aircraft | B738/M-SDE2E3FGHIRWXY/LB1 |
Departure
| Time | 2026-04-20 20:31 |
|---|---|
| Airport | Jomo Kenyatta International Airport (HKJK) |
Arrival
| Time | 2026-04-20 21:10 |
|---|---|
| Airport | Kisumu International Airport (HKKI) |
| Time | Latitude | Longitude | Altitude | Speed | Heading |
|---|---|---|---|---|---|
| 2026-04-20 20:02 | -1.32876 | 36.92519 | 5339 ft | 0 kts | 191° |
| 2026-04-20 20:16 | -1.32868 | 36.92522 | 5339 ft | 2 kts | 191° |
| 2026-04-20 20:16 | -1.32853 | 36.92525 | 5339 ft | 2 kts | 193° |
| 2026-04-20 20:16 | -1.32838 | 36.92529 | 5339 ft | 2 kts | 194° |
| 2026-04-20 20:17 | -1.32822 | 36.92533 | 5339 ft | 2 kts | 194° |
| 2026-04-20 20:17 | -1.32807 | 36.92537 | 5339 ft | 2 kts | 194° |
| 2026-04-20 20:17 | -1.32792 | 36.92541 | 5339 ft | 2 kts | 194° |
| 2026-04-20 20:17 | -1.32778 | 36.92546 | 5339 ft | 2 kts | 223° |
| 2026-04-20 20:18 | -1.32771 | 36.92559 | 5339 ft | 2 kts | 258° |
| 2026-04-20 20:18 | -1.32772 | 36.92573 | 5339 ft | 2 kts | 288° |
| 2026-04-20 20:18 | -1.32775 | 36.92589 | 5339 ft | 2 kts | 283° |
| 2026-04-20 20:18 | -1.32779 | 36.92604 | 5339 ft | 2 kts | 283° |
| 2026-04-20 20:19 | -1.32780 | 36.92607 | 5339 ft | 0 kts | 283° |
| 2026-04-20 20:22 | -1.32779 | 36.92606 | 5339 ft | 1 kts | 283° |
| 2026-04-20 20:22 | -1.32778 | 36.92599 | 5339 ft | 1 kts | 283° |
| 2026-04-20 20:23 | -1.32775 | 36.92586 | 5339 ft | 2 kts | 283° |
| 2026-04-20 20:23 | -1.32772 | 36.92576 | 5339 ft | 0 kts | 283° |
| 2026-04-20 20:23 | -1.32771 | 36.92572 | 5339 ft | 1 kts | 283° |
| 2026-04-20 20:23 | -1.32768 | 36.92554 | 5339 ft | 3 kts | 279° |
| 2026-04-20 20:24 | -1.32765 | 36.92521 | 5339 ft | 6 kts | 272° |
| 2026-04-20 20:24 | -1.32766 | 36.92464 | 5339 ft | 10 kts | 266° |
| 2026-04-20 20:24 | -1.32787 | 36.92391 | 5339 ft | 11 kts | 237° |
| 2026-04-20 20:24 | -1.32823 | 36.92337 | 5339 ft | 8 kts | 236° |
| 2026-04-20 20:25 | -1.32859 | 36.92292 | 5339 ft | 4 kts | 237° |
| 2026-04-20 20:25 | -1.32858 | 36.92269 | 5339 ft | 3 kts | 292° |
| 2026-04-20 20:25 | -1.32839 | 36.92246 | 5339 ft | 5 kts | 314° |
| 2026-04-20 20:25 | -1.32820 | 36.92228 | 5339 ft | 4 kts | 317° |
| 2026-04-20 20:26 | -1.32792 | 36.92205 | 5339 ft | 6 kts | 319° |
| 2026-04-20 20:26 | -1.32788 | 36.92169 | 5339 ft | 6 kts | 249° |
| 2026-04-20 20:26 | -1.32816 | 36.92125 | 5339 ft | 9 kts | 234° |
| 2026-04-20 20:26 | -1.32861 | 36.92063 | 5339 ft | 13 kts | 234° |
| 2026-04-20 20:27 | -1.32921 | 36.91982 | 5339 ft | 16 kts | 233° |
| 2026-04-20 20:27 | -1.32979 | 36.91902 | 5339 ft | 7 kts | 233° |
| 2026-04-20 20:27 | -1.33007 | 36.91856 | 5339 ft | 5 kts | 268° |
| 2026-04-20 20:27 | -1.32994 | 36.91827 | 5339 ft | 4 kts | 314° |
| 2026-04-20 20:28 | -1.32963 | 36.91801 | 5339 ft | 7 kts | 323° |
| 2026-04-20 20:28 | -1.32911 | 36.91763 | 5339 ft | 11 kts | 324° |
| 2026-04-20 20:28 | -1.32839 | 36.91712 | 5339 ft | 14 kts | 324° |
| 2026-04-20 20:28 | -1.32802 | 36.91685 | 5339 ft | 0 kts | 324° |
| 2026-04-20 20:29 | -1.32798 | 36.91682 | 5339 ft | 2 kts | 324° |
| 2026-04-20 20:29 | -1.32775 | 36.91666 | 5339 ft | 5 kts | 328° |
| 2026-04-20 20:29 | -1.32745 | 36.91666 | 5339 ft | 2 kts | 33° |
| 2026-04-20 20:30 | -1.32727 | 36.91683 | 5339 ft | 5 kts | 48° |
| 2026-04-20 20:30 | -1.32698 | 36.91720 | 5339 ft | 9 kts | 53° |
| 2026-04-20 20:30 | -1.32636 | 36.91805 | 5339 ft | 23 kts | 54° |
| 2026-04-20 20:30 | -1.32439 | 36.92071 | 5339 ft | 99 kts | 54° |
| 2026-04-20 20:31 | -1.31800 | 36.92948 | 5341 ft | 208 kts | 54° |
| 2026-04-20 20:31 | -1.30806 | 36.94315 | 5834 ft | 266 kts | 52° |
| 2026-04-20 20:31 | -1.29845 | 36.96020 | 7228 ft | 298 kts | 68° |
| 2026-04-20 20:31 | -1.29600 | 36.98061 | 9017 ft | 291 kts | 92° |
| 2026-04-20 20:32 | -1.30188 | 36.99972 | 10977 ft | 287 kts | 117° |
| 2026-04-20 20:32 | -1.31458 | 37.01460 | 12861 ft | 280 kts | 141° |
| 2026-04-20 20:32 | -1.33170 | 37.02339 | 14250 ft | 292 kts | 162° |
| 2026-04-20 20:32 | -1.35239 | 37.02564 | 14999 ft | 307 kts | 186° |
| 2026-04-20 20:33 | -1.37285 | 37.01958 | 15761 ft | 309 kts | 209° |
| 2026-04-20 20:33 | -1.38939 | 37.00609 | 16519 ft | 309 kts | 232° |
| 2026-04-20 20:33 | -1.39947 | 36.98725 | 17275 ft | 310 kts | 253° |
| 2026-04-20 20:33 | -1.40154 | 36.96577 | 18015 ft | 316 kts | 275° |
| 2026-04-20 20:34 | -1.39612 | 36.94443 | 18745 ft | 318 kts | 289° |
| 2026-04-20 20:34 | -1.38746 | 36.92407 | 19498 ft | 319 kts | 293° |
| 2026-04-20 20:34 | -1.37841 | 36.90378 | 20249 ft | 321 kts | 291° |
| 2026-04-20 20:34 | -1.37147 | 36.88253 | 21002 ft | 323 kts | 283° |
| 2026-04-20 20:35 | -1.36652 | 36.86087 | 21748 ft | 326 kts | 281° |
| 2026-04-20 20:35 | -1.36168 | 36.83860 | 22502 ft | 329 kts | 282° |
| 2026-04-20 20:35 | -1.35641 | 36.81627 | 23253 ft | 333 kts | 283° |
| 2026-04-20 20:35 | -1.35045 | 36.79370 | 23938 ft | 344 kts | 284° |
| 2026-04-20 20:36 | -1.34336 | 36.76946 | 24037 ft | 383 kts | 286° |
| 2026-04-20 20:36 | -1.33482 | 36.74300 | 24026 ft | 414 kts | 288° |
| 2026-04-20 20:36 | -1.32523 | 36.71539 | 24010 ft | 424 kts | 289° |
| 2026-04-20 20:36 | -1.31501 | 36.68753 | 24001 ft | 429 kts | 289° |
| 2026-04-20 20:37 | -1.30436 | 36.65951 | 23998 ft | 433 kts | 290° |
| 2026-04-20 20:37 | -1.29353 | 36.63172 | 23997 ft | 436 kts | 290° |
| 2026-04-20 20:37 | -1.28234 | 36.60350 | 23997 ft | 438 kts | 290° |
| 2026-04-20 20:37 | -1.27100 | 36.57522 | 23996 ft | 439 kts | 291° |
| 2026-04-20 20:38 | -1.25954 | 36.54687 | 23996 ft | 440 kts | 291° |
| 2026-04-20 20:38 | -1.24800 | 36.51844 | 23996 ft | 441 kts | 291° |
| 2026-04-20 20:38 | -1.23644 | 36.49008 | 23996 ft | 441 kts | 291° |
| 2026-04-20 20:38 | -1.22484 | 36.46166 | 23996 ft | 442 kts | 291° |
| 2026-04-20 20:39 | -1.21323 | 36.43323 | 23996 ft | 442 kts | 291° |
| 2026-04-20 20:39 | -1.20162 | 36.40482 | 23996 ft | 442 kts | 291° |
| 2026-04-20 20:39 | -1.19013 | 36.37673 | 23996 ft | 442 kts | 291° |
| 2026-04-20 20:39 | -1.17852 | 36.34834 | 23996 ft | 442 kts | 291° |
| 2026-04-20 20:40 | -1.16687 | 36.31982 | 23996 ft | 442 kts | 291° |
| 2026-04-20 20:40 | -1.15525 | 36.29139 | 23996 ft | 442 kts | 291° |
| 2026-04-20 20:40 | -1.14363 | 36.26295 | 23996 ft | 442 kts | 291° |
| 2026-04-20 20:40 | -1.13200 | 36.23447 | 23996 ft | 442 kts | 291° |
| 2026-04-20 20:41 | -1.12041 | 36.20609 | 23996 ft | 442 kts | 291° |
| 2026-04-20 20:41 | -1.10865 | 36.17765 | 23996 ft | 443 kts | 292° |
| 2026-04-20 20:41 | -1.09501 | 36.15046 | 23997 ft | 443 kts | 297° |
| 2026-04-20 20:41 | -1.07932 | 36.12392 | 23997 ft | 444 kts | 300° |
| 2026-04-20 20:42 | -1.06237 | 36.09787 | 23997 ft | 450 kts | 302° |
| 2026-04-20 20:42 | -1.04449 | 36.07192 | 23998 ft | 456 kts | 303° |
| 2026-04-20 20:42 | -1.02604 | 36.04603 | 23997 ft | 460 kts | 304° |
| 2026-04-20 20:42 | -1.00719 | 36.02007 | 23997 ft | 462 kts | 304° |
| 2026-04-20 20:43 | -0.98813 | 35.99408 | 23996 ft | 464 kts | 304° |
| 2026-04-20 20:43 | -0.96897 | 35.96809 | 23996 ft | 465 kts | 305° |
| 2026-04-20 20:43 | -0.94990 | 35.94228 | 23996 ft | 466 kts | 305° |
| 2026-04-20 20:43 | -0.93076 | 35.91635 | 23996 ft | 466 kts | 305° |
| 2026-04-20 20:44 | -0.91152 | 35.89026 | 23996 ft | 467 kts | 305° |
| 2026-04-20 20:44 | -0.89227 | 35.86410 | 23996 ft | 467 kts | 304° |
| 2026-04-20 20:44 | -0.87304 | 35.83792 | 23996 ft | 467 kts | 304° |
| 2026-04-20 20:44 | -0.85384 | 35.81174 | 23996 ft | 467 kts | 304° |
| 2026-04-20 20:45 | -0.83466 | 35.78554 | 23996 ft | 467 kts | 304° |
| 2026-04-20 20:45 | -0.81546 | 35.75927 | 23996 ft | 467 kts | 304° |
| 2026-04-20 20:45 | -0.79631 | 35.73304 | 23996 ft | 467 kts | 304° |
| 2026-04-20 20:45 | -0.77716 | 35.70677 | 23996 ft | 468 kts | 304° |
| 2026-04-20 20:46 | -0.75830 | 35.68089 | 23996 ft | 468 kts | 304° |
| 2026-04-20 20:46 | -0.73917 | 35.65462 | 23996 ft | 468 kts | 304° |
| 2026-04-20 20:46 | -0.72004 | 35.62833 | 23996 ft | 468 kts | 304° |
| 2026-04-20 20:46 | -0.70097 | 35.60210 | 23996 ft | 468 kts | 304° |
| 2026-04-20 20:47 | -0.68182 | 35.57576 | 23996 ft | 468 kts | 304° |
| 2026-04-20 20:47 | -0.66270 | 35.54946 | 23996 ft | 468 kts | 304° |
| 2026-04-20 20:47 | -0.64360 | 35.52317 | 23996 ft | 468 kts | 304° |
| 2026-04-20 20:47 | -0.62449 | 35.49687 | 23996 ft | 468 kts | 304° |
| 2026-04-20 20:48 | -0.60542 | 35.47062 | 23996 ft | 468 kts | 304° |
| 2026-04-20 20:48 | -0.58629 | 35.44428 | 23870 ft | 470 kts | 304° |
| 2026-04-20 20:48 | -0.56740 | 35.41827 | 23150 ft | 458 kts | 304° |
| 2026-04-20 20:48 | -0.54946 | 35.39365 | 22402 ft | 422 kts | 304° |
| 2026-04-20 20:49 | -0.53277 | 35.37076 | 21648 ft | 395 kts | 304° |
| 2026-04-20 20:49 | -0.51709 | 35.34924 | 21062 ft | 370 kts | 304° |
| 2026-04-20 20:49 | -0.50250 | 35.32921 | 20816 ft | 342 kts | 304° |
| 2026-04-20 20:49 | -0.48910 | 35.31079 | 20666 ft | 316 kts | 304° |
| 2026-04-20 20:50 | -0.47649 | 35.29338 | 20083 ft | 308 kts | 304° |
| 2026-04-20 20:50 | -0.46412 | 35.27626 | 19759 ft | 293 kts | 303° |
| 2026-04-20 20:50 | -0.45259 | 35.26013 | 19494 ft | 279 kts | 301° |
| 2026-04-20 20:50 | -0.44353 | 35.24372 | 19242 ft | 270 kts | 294° |
| 2026-04-20 20:51 | -0.43635 | 35.22647 | 18989 ft | 266 kts | 289° |
| 2026-04-20 20:51 | -0.43034 | 35.20907 | 18738 ft | 264 kts | 287° |
| 2026-04-20 20:51 | -0.42499 | 35.19163 | 18487 ft | 262 kts | 285° |
| 2026-04-20 20:51 | -0.42005 | 35.17417 | 18237 ft | 260 kts | 285° |
| 2026-04-20 20:52 | -0.41537 | 35.15674 | 17986 ft | 259 kts | 284° |
| 2026-04-20 20:52 | -0.41086 | 35.13936 | 17735 ft | 258 kts | 284° |
| 2026-04-20 20:52 | -0.40647 | 35.12202 | 17475 ft | 257 kts | 284° |
| 2026-04-20 20:52 | -0.40225 | 35.10509 | 17349 ft | 252 kts | 284° |
| 2026-04-20 20:53 | -0.39807 | 35.08814 | 17225 ft | 253 kts | 283° |
| 2026-04-20 20:53 | -0.39387 | 35.07099 | 17059 ft | 254 kts | 283° |
| 2026-04-20 20:53 | -0.38979 | 35.05422 | 16899 ft | 242 kts | 283° |
| 2026-04-20 20:53 | -0.38593 | 35.03835 | 16715 ft | 232 kts | 283° |
| 2026-04-20 20:54 | -0.38216 | 35.02278 | 16503 ft | 230 kts | 284° |
| 2026-04-20 20:54 | -0.37836 | 35.00708 | 16301 ft | 234 kts | 284° |
| 2026-04-20 20:54 | -0.37455 | 34.99129 | 16106 ft | 234 kts | 284° |
| 2026-04-20 20:54 | -0.37078 | 34.97569 | 15910 ft | 234 kts | 284° |
| 2026-04-20 20:55 | -0.36695 | 34.95983 | 15710 ft | 234 kts | 284° |
| 2026-04-20 20:55 | -0.36313 | 34.94401 | 15511 ft | 234 kts | 284° |
| 2026-04-20 20:55 | -0.35932 | 34.92819 | 15311 ft | 234 kts | 284° |
| 2026-04-20 20:55 | -0.35550 | 34.91235 | 15112 ft | 234 kts | 284° |
| 2026-04-20 20:56 | -0.35168 | 34.89653 | 14912 ft | 234 kts | 284° |
| 2026-04-20 20:56 | -0.34778 | 34.88078 | 14712 ft | 234 kts | 285° |
| 2026-04-20 20:56 | -0.34347 | 34.86513 | 14513 ft | 233 kts | 286° |
| 2026-04-20 20:56 | -0.33908 | 34.84979 | 14307 ft | 224 kts | 287° |
| 2026-04-20 20:57 | -0.33484 | 34.83513 | 14095 ft | 215 kts | 287° |
| 2026-04-20 20:57 | -0.33080 | 34.82115 | 13888 ft | 209 kts | 287° |
| 2026-04-20 20:57 | -0.32684 | 34.80735 | 13682 ft | 205 kts | 287° |
| 2026-04-20 20:57 | -0.32296 | 34.79379 | 13476 ft | 201 kts | 287° |
| 2026-04-20 20:58 | -0.31915 | 34.78040 | 13272 ft | 199 kts | 287° |
| 2026-04-20 20:58 | -0.31539 | 34.76719 | 13068 ft | 197 kts | 287° |
| 2026-04-20 20:58 | -0.31170 | 34.75415 | 12908 ft | 194 kts | 287° |
| 2026-04-20 20:58 | -0.30802 | 34.74116 | 12779 ft | 193 kts | 287° |
| 2026-04-20 20:59 | -0.30437 | 34.72826 | 12653 ft | 192 kts | 287° |
| 2026-04-20 20:59 | -0.30075 | 34.71543 | 12527 ft | 192 kts | 287° |
| 2026-04-20 20:59 | -0.29713 | 34.70263 | 12401 ft | 191 kts | 287° |
| 2026-04-20 20:59 | -0.29354 | 34.68990 | 12275 ft | 191 kts | 287° |
| 2026-04-20 21:00 | -0.28999 | 34.67735 | 12151 ft | 190 kts | 287° |
| 2026-04-20 21:00 | -0.28641 | 34.66465 | 12026 ft | 190 kts | 287° |
| 2026-04-20 21:00 | -0.28283 | 34.65197 | 11900 ft | 189 kts | 287° |
| 2026-04-20 21:00 | -0.27926 | 34.63934 | 11775 ft | 189 kts | 287° |
| 2026-04-20 21:01 | -0.27570 | 34.62671 | 11650 ft | 189 kts | 287° |
| 2026-04-20 21:01 | -0.27214 | 34.61410 | 11525 ft | 188 kts | 287° |
| 2026-04-20 21:01 | -0.26857 | 34.60149 | 11399 ft | 188 kts | 287° |
| 2026-04-20 21:01 | -0.26503 | 34.58893 | 11274 ft | 188 kts | 287° |
| 2026-04-20 21:02 | -0.26154 | 34.57656 | 11151 ft | 188 kts | 287° |
| 2026-04-20 21:02 | -0.25799 | 34.56398 | 10967 ft | 188 kts | 287° |
| 2026-04-20 21:02 | -0.25444 | 34.55141 | 10724 ft | 188 kts | 287° |
| 2026-04-20 21:02 | -0.25090 | 34.53886 | 10473 ft | 187 kts | 287° |
| 2026-04-20 21:03 | -0.24736 | 34.52635 | 10222 ft | 187 kts | 287° |
| 2026-04-20 21:03 | -0.24385 | 34.51389 | 9972 ft | 186 kts | 287° |
| 2026-04-20 21:03 | -0.24034 | 34.50144 | 9722 ft | 186 kts | 287° |
| 2026-04-20 21:03 | -0.23563 | 34.48956 | 9432 ft | 187 kts | 302° |
| 2026-04-20 21:04 | -0.22515 | 34.48206 | 9190 ft | 191 kts | 338° |
| 2026-04-20 21:04 | -0.21198 | 34.48210 | 8952 ft | 198 kts | 11° |
| 2026-04-20 21:04 | -0.20062 | 34.48994 | 8737 ft | 205 kts | 44° |
| 2026-04-20 21:04 | -0.19428 | 34.50287 | 8442 ft | 208 kts | 68° |
| 2026-04-20 21:05 | -0.19032 | 34.51665 | 8145 ft | 204 kts | 72° |
| 2026-04-20 21:05 | -0.18640 | 34.53008 | 7837 ft | 200 kts | 71° |
| 2026-04-20 21:05 | -0.18186 | 34.54309 | 7538 ft | 196 kts | 67° |
| 2026-04-20 21:05 | -0.17675 | 34.55558 | 7365 ft | 192 kts | 64° |
| 2026-04-20 21:06 | -0.17131 | 34.56750 | 7259 ft | 190 kts | 63° |
| 2026-04-20 21:06 | -0.16555 | 34.57926 | 7253 ft | 188 kts | 61° |
| 2026-04-20 21:06 | -0.15956 | 34.59101 | 7049 ft | 190 kts | 60° |
| 2026-04-20 21:06 | -0.15351 | 34.60258 | 6879 ft | 187 kts | 60° |
| 2026-04-20 21:07 | -0.14743 | 34.61405 | 6703 ft | 187 kts | 60° |
| 2026-04-20 21:07 | -0.14132 | 34.62550 | 6428 ft | 187 kts | 60° |
| 2026-04-20 21:07 | -0.13519 | 34.63695 | 6102 ft | 186 kts | 60° |
| 2026-04-20 21:07 | -0.12922 | 34.64810 | 5895 ft | 181 kts | 60° |
| 2026-04-20 21:08 | -0.12327 | 34.65919 | 5693 ft | 181 kts | 60° |
| 2026-04-20 21:08 | -0.11735 | 34.67022 | 5360 ft | 179 kts | 60° |
| 2026-04-20 21:08 | -0.11160 | 34.68093 | 5103 ft | 173 kts | 60° |
| 2026-04-20 21:08 | -0.10595 | 34.69148 | 4895 ft | 173 kts | 60° |
| 2026-04-20 21:09 | -0.09977 | 34.70191 | 4400 ft | 177 kts | 60° |
| 2026-04-20 21:09 | -0.09477 | 34.71274 | 4119 ft | 169 kts | 63° |
| 2026-04-20 21:09 | -0.08915 | 34.72300 | 3873 ft | 166 kts | 59° |
| 2026-04-20 21:09 | -0.08406 | 34.73190 | 3805 ft | 122 kts | 63° |
| 2026-04-20 21:10 | -0.08115 | 34.73790 | 3804 ft | 80 kts | 61° |
| 2026-04-20 21:10 | -0.07773 | 34.74148 | 3804 ft | 67 kts | 12° |
| 2026-04-20 21:10 | -0.07387 | 34.74148 | 3826 ft | 39 kts | 340° |
| 2026-04-20 21:10 | -0.07292 | 34.74093 | 3838 ft | 3 kts | 236° |
| 2026-04-20 21:11 | -0.07299 | 34.74086 | 3838 ft | 0 kts | 224° |